PWSweather.com
Personal Weather Stations
Station Observations
IFREISTO2
Freiston, FreistonGB PE22 0QJ

FreistonFreistonGB PE22 0QJ

Lat: 52.964, Lon: 0.041

Elevation: 16

Station Type: Fine Offset

http://www.midlifedad.me.uk/weather

Latest ConditionsUpdated 1:45:00 AM GMT Thursday, Jan 17, 2019
Currently Today's Max Today's Min Today's Average
Temperature 37.4°F3.0°C 37.4°F3.0°C 35.2°F1.8°C 36.7°F2.6°C
Dew Point 34.2°F1.2°C 34.5°F1.4°C 31.2°F-0.4°C 32.8°F0.4°C
Winds 6.8 mph WSW10.9 kmh WSW 7.0 mph -11.3 kmh - - 5.8 mph 9.3 kmh
Wind Gusts 10.7 mph17.2 kmh 12.1 mph19.5 kmh - -
Humidity 88% 89% 85% 86%
Pressure 29.54 in1000.3 mb 29.54 in1000.3 mb 29.53 in1000.0 mb -
Hour Temp Dew Point Humidity Winds Wind Gusts Pressure Precip Precip Rate Daily Precip Total
01:45 AM 37.4°F3.0°C 34.2°F1.2°C 88% 6.8 mph WSW10.9 kmh WSW 10.7 mph17.2 kmh 29.54 in1000.3 mb 0.00 in0.0 mm 0.00 in0.0 mm 0.00 in0.0 mm
01:40 AM 37.4°F3.0°C 34.2°F1.2°C 88% 6.5 mph WSW10.5 kmh WSW 9.8 mph15.8 kmh 29.54 in1000.3 mb 0.00 in0.0 mm 0.00 in0.0 mm 0.00 in0.0 mm
01:35 AM 37.4°F3.0°C 34.5°F1.4°C 89% 6.3 mph SW10.1 kmh SW 9.8 mph15.8 kmh 29.54 in1000.3 mb 0.00 in0.0 mm 0.00 in0.0 mm 0.00 in0.0 mm
01:30 AM 37.2°F2.9°C 33.1°F0.6°C 85% 6.3 mph SW10.1 kmh SW 11.4 mph18.3 kmh 29.54 in1000.3 mb 0.00 in0.0 mm 0.00 in0.0 mm 0.00 in0.0 mm
01:25 AM 37.2°F2.9°C 33.1°F0.6°C 85% 6.1 mph SW9.8 kmh SW 11.4 mph18.3 kmh 29.54 in1000.3 mb 0.00 in0.0 mm 0.00 in0.0 mm 0.00 in0.0 mm
01:20 AM 37.2°F2.9°C 33.1°F0.6°C 85% 6.1 mph SW9.8 kmh SW 10.7 mph17.2 kmh 29.54 in1000.3 mb 0.00 in0.0 mm 0.00 in0.0 mm 0.00 in0.0 mm
01:15 AM 37.2°F2.9°C 33.1°F0.6°C 85% 7.0 mph WSW11.3 kmh WSW 12.1 mph19.5 kmh 29.54 in1000.3 mb 0.00 in0.0 mm 0.00 in0.0 mm 0.00 in0.0 mm
01:10 AM 37.2°F2.9°C 33.1°F0.6°C 85% 6.9 mph WSW11.1 kmh WSW 12.1 mph19.5 kmh 29.54 in1000.3 mb 0.00 in0.0 mm 0.00 in0.0 mm 0.00 in0.0 mm
01:05 AM 37.0°F2.8°C 32.9°F0.5°C 85% 6.4 mph SW10.3 kmh SW 11.4 mph18.3 kmh 29.54 in1000.3 mb 0.00 in0.0 mm 0.00 in0.0 mm 0.00 in0.0 mm
01:00 AM 36.9°F2.7°C 32.8°F0.4°C 85% 6.6 mph SW10.6 kmh SW 11.4 mph18.3 kmh 29.54 in1000.3 mb 0.00 in0.0 mm 0.00 in0.0 mm 0.00 in0.0 mm
12:55 AM 36.9°F2.7°C 32.8°F0.4°C 85% 6.3 mph WSW10.1 kmh WSW 11.4 mph18.3 kmh 29.54 in1000.3 mb 0.00 in0.0 mm 0.00 in0.0 mm 0.00 in0.0 mm
12:50 AM 36.9°F2.7°C 32.8°F0.4°C 85% 6.2 mph WSW10.0 kmh WSW 11.4 mph18.3 kmh 29.54 in1000.3 mb 0.00 in0.0 mm 0.00 in0.0 mm 0.00 in0.0 mm
12:45 AM 36.9°F2.7°C 32.8°F0.4°C 85% 6.3 mph W10.1 kmh W 11.4 mph18.3 kmh 29.54 in1000.3 mb 0.00 in0.0 mm 0.00 in0.0 mm 0.00 in0.0 mm
12:40 AM 36.7°F2.6°C 32.6°F0.3°C 85% 5.7 mph WNW9.2 kmh WNW 10.7 mph17.2 kmh 29.54 in1000.3 mb 0.00 in0.0 mm 0.00 in0.0 mm 0.00 in0.0 mm
12:35 AM 36.7°F2.6°C 32.6°F0.3°C 85% 5.6 mph W9.0 kmh W 9.2 mph14.8 kmh 29.54 in1000.3 mb 0.00 in0.0 mm 0.00 in0.0 mm 0.00 in0.0 mm
12:30 AM 36.7°F2.6°C 32.6°F0.3°C 85% 5.8 mph WSW9.3 kmh WSW 9.2 mph14.8 kmh 29.54 in1000.3 mb 0.00 in0.0 mm 0.00 in0.0 mm 0.00 in0.0 mm
12:25 AM 36.5°F2.5°C 32.4°F0.2°C 85% 5.6 mph WSW9.0 kmh WSW 9.2 mph14.8 kmh 29.54 in1000.3 mb 0.00 in0.0 mm 0.00 in0.0 mm 0.00 in0.0 mm
12:20 AM 36.3°F2.4°C 32.2°F0.1°C 85% 5.4 mph WSW8.7 kmh WSW 9.2 mph14.8 kmh 29.54 in1000.3 mb 0.00 in0.0 mm 0.00 in0.0 mm 0.00 in0.0 mm
12:15 AM 36.1°F2.3°C 32.1°F0.1°C 85% 5.2 mph SW8.4 kmh SW 9.2 mph14.8 kmh 29.53 in1000.0 mb 0.00 in0.0 mm 0.00 in0.0 mm 0.00 in0.0 mm
12:10 AM 35.8°F2.1°C 31.7°F-0.2°C 85% 4.5 mph SW7.2 kmh SW 7.6 mph12.2 kmh 29.53 in1000.0 mb 0.00 in0.0 mm 0.00 in0.0 mm 0.00 in0.0 mm
12:05 AM 35.4°F1.9°C 31.6°F-0.2°C 86% 3.3 mph SW5.3 kmh SW 6.9 mph11.1 kmh 29.53 in1000.0 mb 0.00 in0.0 mm 0.00 in0.0 mm 0.00 in0.0 mm
12:00 AM 35.2°F1.8°C 31.2°F-0.4°C 85% 3.2 mph SW5.1 kmh SW 5.4 mph8.7 kmh 29.54 in1000.3 mb 0.00 in0.0 mm 0.00 in0.0 mm 0.00 in0.0 mm